sensor_id;sensor_type;location;lat;lon;timestamp;temperature;humidity
8684;DHT22;4379;59.744;18.206;2022-07-10T00:01:59;10.20;99.90
8684;DHT22;4379;59.744;18.206;2022-07-10T00:04:26;10.30;99.90
8684;DHT22;4379;59.744;18.206;2022-07-10T00:06:54;10.20;99.90
8684;DHT22;4379;59.744;18.206;2022-07-10T00:09:23;10.10;99.90
8684;DHT22;4379;59.744;18.206;2022-07-10T00:11:50;10.10;99.90
8684;DHT22;4379;59.744;18.206;2022-07-10T00:14:18;10.00;99.90
8684;DHT22;4379;59.744;18.206;2022-07-10T00:16:45;10.00;99.90
8684;DHT22;4379;59.744;18.206;2022-07-10T00:19:16;9.90;99.90
8684;DHT22;4379;59.744;18.206;2022-07-10T00:21:43;9.70;99.90
8684;DHT22;4379;59.744;18.206;2022-07-10T00:24:10;9.70;99.90
8684;DHT22;4379;59.744;18.206;2022-07-10T00:26:38;9.70;99.90
8684;DHT22;4379;59.744;18.206;2022-07-10T00:29:05;9.70;99.90
8684;DHT22;4379;59.744;18.206;2022-07-10T00:31:32;9.60;99.90
8684;DHT22;4379;59.744;18.206;2022-07-10T00:34:00;9.60;99.90
8684;DHT22;4379;59.744;18.206;2022-07-10T00:36:27;9.70;99.90
8684;DHT22;4379;59.744;18.206;2022-07-10T00:38:54;9.80;99.90
8684;DHT22;4379;59.744;18.206;2022-07-10T00:41:22;9.80;99.90
8684;DHT22;4379;59.744;18.206;2022-07-10T00:43:57;9.80;99.90
8684;DHT22;4379;59.744;18.206;2022-07-10T00:46:29;9.80;99.90
8684;DHT22;4379;59.744;18.206;2022-07-10T00:48:56;9.60;99.90
8684;DHT22;4379;59.744;18.206;2022-07-10T00:51:26;9.60;99.90
8684;DHT22;4379;59.744;18.206;2022-07-10T00:53:54;9.50;99.90
8684;DHT22;4379;59.744;18.206;2022-07-10T00:56:24;9.40;99.90
8684;DHT22;4379;59.744;18.206;2022-07-10T00:58:53;9.50;99.90
8684;DHT22;4379;59.744;18.206;2022-07-10T01:01:21;9.50;99.90
8684;DHT22;4379;59.744;18.206;2022-07-10T01:03:50;9.50;99.90
8684;DHT22;4379;59.744;18.206;2022-07-10T01:06:18;9.40;99.90
8684;DHT22;4379;59.744;18.206;2022-07-10T01:08:46;9.40;99.90
8684;DHT22;4379;59.744;18.206;2022-07-10T01:11:14;9.40;99.90
8684;DHT22;4379;59.744;18.206;2022-07-10T01:13:43;9.40;99.90
8684;DHT22;4379;59.744;18.206;2022-07-10T01:16:13;9.30;99.90
8684;DHT22;4379;59.744;18.206;2022-07-10T01:18:41;9.20;99.90
8684;DHT22;4379;59.744;18.206;2022-07-10T01:21:28;9.10;99.90
8684;DHT22;4379;59.744;18.206;2022-07-10T01:23:56;9.00;99.90
8684;DHT22;4379;59.744;18.206;2022-07-10T01:26:24;8.90;99.90
8684;DHT22;4379;59.744;18.206;2022-07-10T01:28:53;8.90;99.90
8684;DHT22;4379;59.744;18.206;2022-07-10T01:31:27;8.90;99.90
8684;DHT22;4379;59.744;18.206;2022-07-10T01:33:56;8.90;99.90
8684;DHT22;4379;59.744;18.206;2022-07-10T01:36:23;8.80;99.90
8684;DHT22;4379;59.744;18.206;2022-07-10T01:38:52;8.70;99.90
8684;DHT22;4379;59.744;18.206;2022-07-10T01:41:19;8.60;99.90
8684;DHT22;4379;59.744;18.206;2022-07-10T01:43:47;8.50;99.90
8684;DHT22;4379;59.744;18.206;2022-07-10T01:46:15;8.50;99.90
8684;DHT22;4379;59.744;18.206;2022-07-10T01:48:43;8.40;99.90
8684;DHT22;4379;59.744;18.206;2022-07-10T01:51:11;8.50;99.90
8684;DHT22;4379;59.744;18.206;2022-07-10T01:53:39;8.50;99.90
8684;DHT22;4379;59.744;18.206;2022-07-10T01:56:10;8.50;99.90
8684;DHT22;4379;59.744;18.206;2022-07-10T01:58:38;8.50;99.90
8684;DHT22;4379;59.744;18.206;2022-07-10T02:01:06;8.60;99.90
8684;DHT22;4379;59.744;18.206;2022-07-10T02:03:34;8.70;99.90
8684;DHT22;4379;59.744;18.206;2022-07-10T02:06:20;8.70;99.90
8684;DHT22;4379;59.744;18.206;2022-07-10T02:08:48;8.70;99.90
8684;DHT22;4379;59.744;18.206;2022-07-10T02:11:18;8.80;99.90
8684;DHT22;4379;59.744;18.206;2022-07-10T02:13:46;8.90;99.90
8684;DHT22;4379;59.744;18.206;2022-07-10T02:16:14;8.90;99.90
8684;DHT22;4379;59.744;18.206;2022-07-10T02:18:44;9.00;99.90
8684;DHT22;4379;59.744;18.206;2022-07-10T02:21:12;9.10;99.90
8684;DHT22;4379;59.744;18.206;2022-07-10T02:23:39;9.00;99.90
8684;DHT22;4379;59.744;18.206;2022-07-10T02:26:08;9.00;99.90
8684;DHT22;4379;59.744;18.206;2022-07-10T02:28:36;9.10;99.90
8684;DHT22;4379;59.744;18.206;2022-07-10T02:31:04;9.20;99.90
8684;DHT22;4379;59.744;18.206;2022-07-10T02:33:32;9.30;99.90
8684;DHT22;4379;59.744;18.206;2022-07-10T02:35:59;9.40;99.90
8684;DHT22;4379;59.744;18.206;2022-07-10T02:38:27;9.40;99.90
8684;DHT22;4379;59.744;18.206;2022-07-10T02:40:55;9.40;99.90
8684;DHT22;4379;59.744;18.206;2022-07-10T02:43:23;9.50;99.90
8684;DHT22;4379;59.744;18.206;2022-07-10T02:45:51;9.50;99.90
8684;DHT22;4379;59.744;18.206;2022-07-10T02:48:18;9.50;99.90
8684;DHT22;4379;59.744;18.206;2022-07-10T02:50:46;9.40;99.90
8684;DHT22;4379;59.744;18.206;2022-07-10T02:53:14;9.40;99.90
8684;DHT22;4379;59.744;18.206;2022-07-10T02:55:42;9.50;99.90
8684;DHT22;4379;59.744;18.206;2022-07-10T02:58:10;9.60;99.90
8684;DHT22;4379;59.744;18.206;2022-07-10T03:00:38;9.80;99.90
8684;DHT22;4379;59.744;18.206;2022-07-10T03:03:07;9.80;99.90
8684;DHT22;4379;59.744;18.206;2022-07-10T03:05:35;9.80;99.90
8684;DHT22;4379;59.744;18.206;2022-07-10T03:08:03;9.90;99.90
8684;DHT22;4379;59.744;18.206;2022-07-10T03:10:30;10.00;99.90
8684;DHT22;4379;59.744;18.206;2022-07-10T03:12:58;10.00;99.90
8684;DHT22;4379;59.744;18.206;2022-07-10T03:15:29;10.00;99.90
8684;DHT22;4379;59.744;18.206;2022-07-10T03:17:57;10.00;99.90
8684;DHT22;4379;59.744;18.206;2022-07-10T03:20:24;10.10;99.90
8684;DHT22;4379;59.744;18.206;2022-07-10T03:22:52;10.10;99.90
8684;DHT22;4379;59.744;18.206;2022-07-10T03:25:20;10.10;99.90
8684;DHT22;4379;59.744;18.206;2022-07-10T03:27:48;10.20;99.90
8684;DHT22;4379;59.744;18.206;2022-07-10T03:30:15;10.40;99.90
8684;DHT22;4379;59.744;18.206;2022-07-10T03:32:43;10.50;99.90
8684;DHT22;4379;59.744;18.206;2022-07-10T03:35:10;10.50;99.90
8684;DHT22;4379;59.744;18.206;2022-07-10T03:37:38;10.60;99.90
8684;DHT22;4379;59.744;18.206;2022-07-10T03:40:06;10.70;99.90
8684;DHT22;4379;59.744;18.206;2022-07-10T03:42:34;10.70;99.90
8684;DHT22;4379;59.744;18.206;2022-07-10T03:45:04;10.60;99.90
8684;DHT22;4379;59.744;18.206;2022-07-10T03:47:32;10.60;99.90
8684;DHT22;4379;59.744;18.206;2022-07-10T03:50:01;10.70;99.90
8684;DHT22;4379;59.744;18.206;2022-07-10T03:52:29;10.70;99.90
8684;DHT22;4379;59.744;18.206;2022-07-10T03:54:57;10.70;99.90
8684;DHT22;4379;59.744;18.206;2022-07-10T03:57:25;10.70;99.90
8684;DHT22;4379;59.744;18.206;2022-07-10T04:00:13;10.90;99.90
8684;DHT22;4379;59.744;18.206;2022-07-10T04:02:41;10.90;99.90
8684;DHT22;4379;59.744;18.206;2022-07-10T04:05:09;10.80;99.90
8684;DHT22;4379;59.744;18.206;2022-07-10T04:07:38;10.80;99.90
8684;DHT22;4379;59.744;18.206;2022-07-10T04:10:08;10.90;99.90
8684;DHT22;4379;59.744;18.206;2022-07-10T04:12:38;10.90;99.90
8684;DHT22;4379;59.744;18.206;2022-07-10T04:15:05;11.00;99.90
8684;DHT22;4379;59.744;18.206;2022-07-10T04:17:34;11.10;99.90
8684;DHT22;4379;59.744;18.206;2022-07-10T04:20:02;11.10;99.90
8684;DHT22;4379;59.744;18.206;2022-07-10T04:22:29;11.30;99.90
8684;DHT22;4379;59.744;18.206;2022-07-10T04:24:57;11.50;99.90
8684;DHT22;4379;59.744;18.206;2022-07-10T04:27:24;11.80;99.90
8684;DHT22;4379;59.744;18.206;2022-07-10T04:29:52;12.00;99.90
8684;DHT22;4379;59.744;18.206;2022-07-10T04:32:19;12.20;99.90
8684;DHT22;4379;59.744;18.206;2022-07-10T04:34:47;12.30;99.90
8684;DHT22;4379;59.744;18.206;2022-07-10T04:37:14;12.50;99.90
8684;DHT22;4379;59.744;18.206;2022-07-10T04:39:42;13.10;99.90
8684;DHT22;4379;59.744;18.206;2022-07-10T04:42:10;14.60;99.90
8684;DHT22;4379;59.744;18.206;2022-07-10T04:44:37;16.70;99.90
8684;DHT22;4379;59.744;18.206;2022-07-10T04:47:05;19.60;99.90
8684;DHT22;4379;59.744;18.206;2022-07-10T04:49:33;22.40;99.90
8684;DHT22;4379;59.744;18.206;2022-07-10T04:52:01;24.40;99.90
8684;DHT22;4379;59.744;18.206;2022-07-10T04:54:28;26.50;99.90
8684;DHT22;4379;59.744;18.206;2022-07-10T04:56:56;27.90;99.90
8684;DHT22;4379;59.744;18.206;2022-07-10T04:59:23;28.60;99.90
8684;DHT22;4379;59.744;18.206;2022-07-10T05:01:50;28.80;99.90
8684;DHT22;4379;59.744;18.206;2022-07-10T05:04:18;28.10;99.90
8684;DHT22;4379;59.744;18.206;2022-07-10T05:06:45;27.30;99.90
8684;DHT22;4379;59.744;18.206;2022-07-10T05:09:13;26.30;99.90
8684;DHT22;4379;59.744;18.206;2022-07-10T05:11:40;24.70;99.90
8684;DHT22;4379;59.744;18.206;2022-07-10T05:14:07;23.70;99.90
8684;DHT22;4379;59.744;18.206;2022-07-10T05:16:35;22.60;99.90
8684;DHT22;4379;59.744;18.206;2022-07-10T05:19:02;22.30;99.90
8684;DHT22;4379;59.744;18.206;2022-07-10T05:21:30;22.10;99.90
8684;DHT22;4379;59.744;18.206;2022-07-10T05:23:57;22.30;99.90
8684;DHT22;4379;59.744;18.206;2022-07-10T05:26:26;22.90;99.90
8684;DHT22;4379;59.744;18.206;2022-07-10T05:28:53;23.70;99.90
8684;DHT22;4379;59.744;18.206;2022-07-10T05:31:21;25.20;99.90
8684;DHT22;4379;59.744;18.206;2022-07-10T05:33:48;27.20;99.90
8684;DHT22;4379;59.744;18.206;2022-07-10T05:36:16;28.70;99.90
8684;DHT22;4379;59.744;18.206;2022-07-10T05:38:44;29.90;99.90
8684;DHT22;4379;59.744;18.206;2022-07-10T05:41:11;31.30;99.90
8684;DHT22;4379;59.744;18.206;2022-07-10T05:43:39;31.70;99.90
8684;DHT22;4379;59.744;18.206;2022-07-10T05:46:06;32.30;99.90
8684;DHT22;4379;59.744;18.206;2022-07-10T05:48:34;33.50;99.90
8684;DHT22;4379;59.744;18.206;2022-07-10T05:51:01;34.30;99.90
8684;DHT22;4379;59.744;18.206;2022-07-10T05:53:49;34.10;99.90
8684;DHT22;4379;59.744;18.206;2022-07-10T05:56:16;35.60;99.90
8684;DHT22;4379;59.744;18.206;2022-07-10T05:58:44;36.40;99.00
8684;DHT22;4379;59.744;18.206;2022-07-10T06:01:11;37.10;99.80
8684;DHT22;4379;59.744;18.206;2022-07-10T06:03:38;37.40;98.90
8684;DHT22;4379;59.744;18.206;2022-07-10T06:06:07;38.10;96.80
8684;DHT22;4379;59.744;18.206;2022-07-10T06:08:34;38.70;96.00
8684;DHT22;4379;59.744;18.206;2022-07-10T06:11:02;38.90;94.20
8684;DHT22;4379;59.744;18.206;2022-07-10T06:13:30;40.10;93.50
8684;DHT22;4379;59.744;18.206;2022-07-10T06:15:57;38.00;93.70
8684;DHT22;4379;59.744;18.206;2022-07-10T06:18:25;38.40;91.00
8684;DHT22;4379;59.744;18.206;2022-07-10T06:20:52;36.10;92.40
8684;DHT22;4379;59.744;18.206;2022-07-10T06:23:28;36.30;93.30
8684;DHT22;4379;59.744;18.206;2022-07-10T06:25:56;35.40;93.90
8684;DHT22;4379;59.744;18.206;2022-07-10T06:28:23;36.50;94.60
8684;DHT22;4379;59.744;18.206;2022-07-10T06:30:51;36.90;92.60
8684;DHT22;4379;59.744;18.206;2022-07-10T06:33:25;37.20;91.50
8684;DHT22;4379;59.744;18.206;2022-07-10T06:35:53;35.40;94.10
8684;DHT22;4379;59.744;18.206;2022-07-10T06:38:20;35.20;93.10
8684;DHT22;4379;59.744;18.206;2022-07-10T06:40:48;32.20;94.60
8684;DHT22;4379;59.744;18.206;2022-07-10T06:43:15;30.50;96.00
8684;DHT22;4379;59.744;18.206;2022-07-10T06:45:43;28.80;97.80
8684;DHT22;4379;59.744;18.206;2022-07-10T06:48:11;27.20;99.00
8684;DHT22;4379;59.744;18.206;2022-07-10T06:50:39;23.80;99.90
8684;DHT22;4379;59.744;18.206;2022-07-10T06:53:09;22.90;99.90
8684;DHT22;4379;59.744;18.206;2022-07-10T06:55:38;23.40;99.90
8684;DHT22;4379;59.744;18.206;2022-07-10T06:58:05;22.90;99.90
8684;DHT22;4379;59.744;18.206;2022-07-10T07:00:33;24.80;99.90
8684;DHT22;4379;59.744;18.206;2022-07-10T07:03:01;28.10;99.90
8684;DHT22;4379;59.744;18.206;2022-07-10T07:05:28;31.60;98.30
8684;DHT22;4379;59.744;18.206;2022-07-10T07:07:56;33.60;94.60
8684;DHT22;4379;59.744;18.206;2022-07-10T07:10:23;33.60;93.70
8684;DHT22;4379;59.744;18.206;2022-07-10T07:12:51;34.30;94.50
8684;DHT22;4379;59.744;18.206;2022-07-10T07:15:19;35.50;94.00
8684;DHT22;4379;59.744;18.206;2022-07-10T07:17:52;34.60;92.90
8684;DHT22;4379;59.744;18.206;2022-07-10T07:20:35;31.90;95.20
8684;DHT22;4379;59.744;18.206;2022-07-10T07:23:22;29.20;96.30
8684;DHT22;4379;59.744;18.206;2022-07-10T07:25:50;27.00;99.90
8684;DHT22;4379;59.744;18.206;2022-07-10T07:28:19;26.80;99.90
8684;DHT22;4379;59.744;18.206;2022-07-10T07:30:47;27.90;97.20
8684;DHT22;4379;59.744;18.206;2022-07-10T07:33:15;30.90;97.30
8684;DHT22;4379;59.744;18.206;2022-07-10T07:35:43;31.10;96.50
8684;DHT22;4379;59.744;18.206;2022-07-10T07:38:10;31.20;94.40
8684;DHT22;4379;59.744;18.206;2022-07-10T07:40:38;30.90;95.90
8684;DHT22;4379;59.744;18.206;2022-07-10T07:43:05;27.90;98.50
8684;DHT22;4379;59.744;18.206;2022-07-10T07:45:33;26.60;98.80
8684;DHT22;4379;59.744;18.206;2022-07-10T07:48:01;25.20;99.90
8684;DHT22;4379;59.744;18.206;2022-07-10T07:50:33;24.60;99.90
8684;DHT22;4379;59.744;18.206;2022-07-10T07:53:01;26.00;99.90
8684;DHT22;4379;59.744;18.206;2022-07-10T07:55:30;28.10;99.70
8684;DHT22;4379;59.744;18.206;2022-07-10T07:57:58;29.30;97.60
8684;DHT22;4379;59.744;18.206;2022-07-10T08:00:28;31.60;94.80
8684;DHT22;4379;59.744;18.206;2022-07-10T08:02:58;31.00;94.40
8684;DHT22;4379;59.744;18.206;2022-07-10T08:05:26;32.50;96.10
8684;DHT22;4379;59.744;18.206;2022-07-10T08:07:56;32.70;94.30
8684;DHT22;4379;59.744;18.206;2022-07-10T08:10:25;32.50;95.40
8684;DHT22;4379;59.744;18.206;2022-07-10T08:12:53;33.00;94.80
8684;DHT22;4379;59.744;18.206;2022-07-10T08:15:21;32.70;93.40
8684;DHT22;4379;59.744;18.206;2022-07-10T08:17:51;31.30;94.80
8684;DHT22;4379;59.744;18.206;2022-07-10T08:20:19;29.00;96.50
8684;DHT22;4379;59.744;18.206;2022-07-10T08:22:46;26.90;97.60
8684;DHT22;4379;59.744;18.206;2022-07-10T08:25:21;24.50;99.90
8684;DHT22;4379;59.744;18.206;2022-07-10T08:27:49;23.80;99.90
8684;DHT22;4379;59.744;18.206;2022-07-10T08:30:17;22.70;99.90
8684;DHT22;4379;59.744;18.206;2022-07-10T08:32:45;21.10;99.90
8684;DHT22;4379;59.744;18.206;2022-07-10T08:35:12;20.10;99.90
8684;DHT22;4379;59.744;18.206;2022-07-10T08:37:44;19.30;99.90
8684;DHT22;4379;59.744;18.206;2022-07-10T08:40:15;19.10;99.90
8684;DHT22;4379;59.744;18.206;2022-07-10T08:42:43;19.30;99.90
8684;DHT22;4379;59.744;18.206;2022-07-10T08:45:13;19.00;99.90
8684;DHT22;4379;59.744;18.206;2022-07-10T08:47:41;18.90;99.90
8684;DHT22;4379;59.744;18.206;2022-07-10T08:50:23;18.90;99.90
8684;DHT22;4379;59.744;18.206;2022-07-10T08:53:13;19.10;99.90
8684;DHT22;4379;59.744;18.206;2022-07-10T08:55:40;19.10;99.90
8684;DHT22;4379;59.744;18.206;2022-07-10T08:58:12;19.10;99.90
8684;DHT22;4379;59.744;18.206;2022-07-10T09:00:40;19.00;99.90
8684;DHT22;4379;59.744;18.206;2022-07-10T09:03:08;18.80;99.90
8684;DHT22;4379;59.744;18.206;2022-07-10T09:05:35;18.80;99.90
8684;DHT22;4379;59.744;18.206;2022-07-10T09:08:03;18.70;99.90
8684;DHT22;4379;59.744;18.206;2022-07-10T09:10:30;18.90;99.90
8684;DHT22;4379;59.744;18.206;2022-07-10T09:13:00;18.80;99.90
8684;DHT22;4379;59.744;18.206;2022-07-10T09:15:32;18.40;99.90
8684;DHT22;4379;59.744;18.206;2022-07-10T09:18:02;18.50;99.90
8684;DHT22;4379;59.744;18.206;2022-07-10T09:20:36;18.50;99.90
8684;DHT22;4379;59.744;18.206;2022-07-10T09:23:18;18.60;99.90
8684;DHT22;4379;59.744;18.206;2022-07-10T09:25:47;18.70;99.90
8684;DHT22;4379;59.744;18.206;2022-07-10T09:28:20;18.50;99.90
8684;DHT22;4379;59.744;18.206;2022-07-10T09:30:49;18.60;99.90
8684;DHT22;4379;59.744;18.206;2022-07-10T09:33:20;18.80;99.90
8684;DHT22;4379;59.744;18.206;2022-07-10T09:38:49;18.70;99.90
8684;DHT22;4379;59.744;18.206;2022-07-10T09:41:23;18.80;99.90
8684;DHT22;4379;59.744;18.206;2022-07-10T09:46:27;18.60;99.90
8684;DHT22;4379;59.744;18.206;2022-07-10T09:49:15;18.90;99.90
8684;DHT22;4379;59.744;18.206;2022-07-10T09:51:45;19.30;99.90
8684;DHT22;4379;59.744;18.206;2022-07-10T09:54:16;19.40;99.90
8684;DHT22;4379;59.744;18.206;2022-07-10T09:56:49;19.50;99.90
8684;DHT22;4379;59.744;18.206;2022-07-10T09:59:21;19.60;99.90
8684;DHT22;4379;59.744;18.206;2022-07-10T10:01:51;19.90;99.90
8684;DHT22;4379;59.744;18.206;2022-07-10T10:04:21;20.10;99.90
8684;DHT22;4379;59.744;18.206;2022-07-10T10:06:53;20.10;99.90
8684;DHT22;4379;59.744;18.206;2022-07-10T10:09:33;19.90;99.90
8684;DHT22;4379;59.744;18.206;2022-07-10T10:12:09;19.80;99.90
8684;DHT22;4379;59.744;18.206;2022-07-10T10:14:40;19.50;99.90
8684;DHT22;4379;59.744;18.206;2022-07-10T10:17:08;19.90;99.90
8684;DHT22;4379;59.744;18.206;2022-07-10T10:19:36;19.90;99.90
8684;DHT22;4379;59.744;18.206;2022-07-10T10:22:24;20.30;99.90
8684;DHT22;4379;59.744;18.206;2022-07-10T10:24:53;20.50;99.90
8684;DHT22;4379;59.744;18.206;2022-07-10T10:27:22;20.20;99.90
8684;DHT22;4379;59.744;18.206;2022-07-10T10:29:51;20.60;99.90
8684;DHT22;4379;59.744;18.206;2022-07-10T10:32:19;21.10;99.90
8684;DHT22;4379;59.744;18.206;2022-07-10T10:34:48;21.40;99.90
8684;DHT22;4379;59.744;18.206;2022-07-10T10:37:41;20.90;99.90
8684;DHT22;4379;59.744;18.206;2022-07-10T10:40:30;20.70;99.90
8684;DHT22;4379;59.744;18.206;2022-07-10T10:43:14;20.20;99.90
8684;DHT22;4379;59.744;18.206;2022-07-10T10:45:44;20.70;99.90
8684;DHT22;4379;59.744;18.206;2022-07-10T10:48:16;21.00;99.90
8684;DHT22;4379;59.744;18.206;2022-07-10T10:51:04;20.80;99.90
8684;DHT22;4379;59.744;18.206;2022-07-10T10:53:32;21.00;99.90
8684;DHT22;4379;59.744;18.206;2022-07-10T10:58:39;21.50;99.90
8684;DHT22;4379;59.744;18.206;2022-07-10T11:04:13;21.80;99.90
8684;DHT22;4379;59.744;18.206;2022-07-10T11:06:43;20.80;99.90
8684;DHT22;4379;59.744;18.206;2022-07-10T11:09:26;21.10;99.90
8684;DHT22;4379;59.744;18.206;2022-07-10T11:12:05;21.40;99.90
8684;DHT22;4379;59.744;18.206;2022-07-10T11:14:37;21.60;99.90
8684;DHT22;4379;59.744;18.206;2022-07-10T11:17:06;21.30;99.90
8684;DHT22;4379;59.744;18.206;2022-07-10T11:19:36;21.30;99.90
8684;DHT22;4379;59.744;18.206;2022-07-10T11:28:07;21.10;99.90
8684;DHT22;4379;59.744;18.206;2022-07-10T11:30:54;21.70;99.90
8684;DHT22;4379;59.744;18.206;2022-07-10T11:33:22;21.30;99.90
8684;DHT22;4379;59.744;18.206;2022-07-10T11:35:51;21.60;99.90
8684;DHT22;4379;59.744;18.206;2022-07-10T11:38:21;21.30;99.90
8684;DHT22;4379;59.744;18.206;2022-07-10T11:40:48;21.40;99.90
8684;DHT22;4379;59.744;18.206;2022-07-10T11:43:16;21.40;99.90
8684;DHT22;4379;59.744;18.206;2022-07-10T11:45:44;21.40;99.90
8684;DHT22;4379;59.744;18.206;2022-07-10T11:48:21;21.60;99.90
8684;DHT22;4379;59.744;18.206;2022-07-10T11:50:51;21.90;99.90
8684;DHT22;4379;59.744;18.206;2022-07-10T11:53:25;21.90;99.90
8684;DHT22;4379;59.744;18.206;2022-07-10T11:55:53;21.60;99.90
8684;DHT22;4379;59.744;18.206;2022-07-10T11:58:21;22.00;99.90
8684;DHT22;4379;59.744;18.206;2022-07-10T12:01:02;22.20;99.90
8684;DHT22;4379;59.744;18.206;2022-07-10T12:03:56;22.30;99.90
8684;DHT22;4379;59.744;18.206;2022-07-10T12:06:25;22.50;99.90
8684;DHT22;4379;59.744;18.206;2022-07-10T12:08:56;22.20;99.90
8684;DHT22;4379;59.744;18.206;2022-07-10T12:11:23;21.60;99.90
8684;DHT22;4379;59.744;18.206;2022-07-10T12:13:51;21.70;99.90
8684;DHT22;4379;59.744;18.206;2022-07-10T12:16:21;21.60;99.90
8684;DHT22;4379;59.744;18.206;2022-07-10T12:18:49;21.90;99.90
8684;DHT22;4379;59.744;18.206;2022-07-10T12:21:17;22.10;99.90
8684;DHT22;4379;59.744;18.206;2022-07-10T12:23:45;21.90;99.90
8684;DHT22;4379;59.744;18.206;2022-07-10T12:26:13;22.10;99.90
8684;DHT22;4379;59.744;18.206;2022-07-10T12:28:53;22.50;99.90
8684;DHT22;4379;59.744;18.206;2022-07-10T12:31:23;22.20;99.90
8684;DHT22;4379;59.744;18.206;2022-07-10T12:34:02;22.40;99.90
8684;DHT22;4379;59.744;18.206;2022-07-10T12:36:46;22.40;99.90
8684;DHT22;4379;59.744;18.206;2022-07-10T12:39:17;22.10;99.90
8684;DHT22;4379;59.744;18.206;2022-07-10T12:47:21;22.70;99.90
8684;DHT22;4379;59.744;18.206;2022-07-10T12:52:29;22.40;99.90
8684;DHT22;4379;59.744;18.206;2022-07-10T12:55:15;22.10;99.90
8684;DHT22;4379;59.744;18.206;2022-07-10T13:00:15;22.00;99.90
8684;DHT22;4379;59.744;18.206;2022-07-10T13:02:43;21.10;99.90
8684;DHT22;4379;59.744;18.206;2022-07-10T13:05:34;21.10;99.90
8684;DHT22;4379;59.744;18.206;2022-07-10T13:08:10;20.70;99.90
8684;DHT22;4379;59.744;18.206;2022-07-10T13:10:41;20.10;99.90
8684;DHT22;4379;59.744;18.206;2022-07-10T13:13:09;20.10;99.90
8684;DHT22;4379;59.744;18.206;2022-07-10T13:15:37;20.10;99.90
8684;DHT22;4379;59.744;18.206;2022-07-10T13:18:14;20.10;99.90
8684;DHT22;4379;59.744;18.206;2022-07-10T13:20:42;20.00;99.90
8684;DHT22;4379;59.744;18.206;2022-07-10T13:23:10;19.90;99.90
8684;DHT22;4379;59.744;18.206;2022-07-10T13:25:37;19.80;99.90
8684;DHT22;4379;59.744;18.206;2022-07-10T13:28:07;20.10;99.90
8684;DHT22;4379;59.744;18.206;2022-07-10T13:30:34;20.20;99.90
8684;DHT22;4379;59.744;18.206;2022-07-10T13:33:02;20.20;99.90
8684;DHT22;4379;59.744;18.206;2022-07-10T13:35:33;20.40;99.90
8684;DHT22;4379;59.744;18.206;2022-07-10T13:38:04;20.40;99.90
8684;DHT22;4379;59.744;18.206;2022-07-10T13:40:34;19.50;99.90
8684;DHT22;4379;59.744;18.206;2022-07-10T13:43:02;19.50;99.90
8684;DHT22;4379;59.744;18.206;2022-07-10T13:45:31;19.40;99.90
8684;DHT22;4379;59.744;18.206;2022-07-10T13:48:04;19.30;99.90
8684;DHT22;4379;59.744;18.206;2022-07-10T13:50:31;19.30;99.90
8684;DHT22;4379;59.744;18.206;2022-07-10T13:53:00;19.10;99.90
8684;DHT22;4379;59.744;18.206;2022-07-10T13:55:27;19.10;99.90
8684;DHT22;4379;59.744;18.206;2022-07-10T13:57:55;19.10;99.90
8684;DHT22;4379;59.744;18.206;2022-07-10T14:00:22;19.20;99.90
8684;DHT22;4379;59.744;18.206;2022-07-10T14:03:06;19.40;99.90
8684;DHT22;4379;59.744;18.206;2022-07-10T14:05:34;19.50;99.90
8684;DHT22;4379;59.744;18.206;2022-07-10T14:08:02;19.50;99.90
8684;DHT22;4379;59.744;18.206;2022-07-10T14:10:30;19.50;99.90
8684;DHT22;4379;59.744;18.206;2022-07-10T14:12:58;19.50;99.90
8684;DHT22;4379;59.744;18.206;2022-07-10T14:15:26;19.80;99.90
8684;DHT22;4379;59.744;18.206;2022-07-10T14:18:02;20.20;99.90
8684;DHT22;4379;59.744;18.206;2022-07-10T14:20:31;20.00;99.90
8684;DHT22;4379;59.744;18.206;2022-07-10T14:23:18;20.30;99.90
8684;DHT22;4379;59.744;18.206;2022-07-10T14:25:46;20.50;99.90
8684;DHT22;4379;59.744;18.206;2022-07-10T14:28:14;20.50;99.90
8684;DHT22;4379;59.744;18.206;2022-07-10T14:30:41;20.40;99.90
8684;DHT22;4379;59.744;18.206;2022-07-10T14:33:18;20.30;99.90
8684;DHT22;4379;59.744;18.206;2022-07-10T14:35:46;20.00;99.90
8684;DHT22;4379;59.744;18.206;2022-07-10T14:38:13;20.00;99.90
8684;DHT22;4379;59.744;18.206;2022-07-10T14:40:41;19.80;99.90
8684;DHT22;4379;59.744;18.206;2022-07-10T14:43:08;20.00;99.90
8684;DHT22;4379;59.744;18.206;2022-07-10T14:45:36;20.00;99.90
8684;DHT22;4379;59.744;18.206;2022-07-10T14:48:23;20.10;99.90
8684;DHT22;4379;59.744;18.206;2022-07-10T14:50:51;20.40;99.90
8684;DHT22;4379;59.744;18.206;2022-07-10T14:53:19;20.70;99.90
8684;DHT22;4379;59.744;18.206;2022-07-10T14:55:47;20.90;99.90
8684;DHT22;4379;59.744;18.206;2022-07-10T14:58:15;20.90;99.90
8684;DHT22;4379;59.744;18.206;2022-07-10T15:00:43;21.00;99.90
8684;DHT22;4379;59.744;18.206;2022-07-10T15:03:10;20.90;99.90
8684;DHT22;4379;59.744;18.206;2022-07-10T15:05:38;20.40;99.90
8684;DHT22;4379;59.744;18.206;2022-07-10T15:08:06;20.20;99.90
8684;DHT22;4379;59.744;18.206;2022-07-10T15:10:33;19.90;99.90
8684;DHT22;4379;59.744;18.206;2022-07-10T15:13:01;19.70;99.90
8684;DHT22;4379;59.744;18.206;2022-07-10T15:15:32;19.50;99.90
8684;DHT22;4379;59.744;18.206;2022-07-10T15:18:00;19.40;99.90
8684;DHT22;4379;59.744;18.206;2022-07-10T15:20:28;19.20;99.90
8684;DHT22;4379;59.744;18.206;2022-07-10T15:22:56;19.00;99.90
8684;DHT22;4379;59.744;18.206;2022-07-10T15:25:23;18.80;99.90
8684;DHT22;4379;59.744;18.206;2022-07-10T15:27:52;18.30;99.90
8684;DHT22;4379;59.744;18.206;2022-07-10T15:30:20;18.30;99.90
8684;DHT22;4379;59.744;18.206;2022-07-10T15:32:47;17.90;99.90
8684;DHT22;4379;59.744;18.206;2022-07-10T15:35:15;18.10;99.90
8684;DHT22;4379;59.744;18.206;2022-07-10T15:37:42;18.20;99.90
8684;DHT22;4379;59.744;18.206;2022-07-10T15:40:12;17.80;99.90
8684;DHT22;4379;59.744;18.206;2022-07-10T15:42:40;18.00;99.90
8684;DHT22;4379;59.744;18.206;2022-07-10T15:45:07;18.20;99.90
8684;DHT22;4379;59.744;18.206;2022-07-10T15:47:40;18.20;99.90
8684;DHT22;4379;59.744;18.206;2022-07-10T15:50:08;18.20;99.90
8684;DHT22;4379;59.744;18.206;2022-07-10T15:52:35;18.30;99.90
8684;DHT22;4379;59.744;18.206;2022-07-10T15:55:03;18.50;99.90
8684;DHT22;4379;59.744;18.206;2022-07-10T15:57:31;18.70;99.90
8684;DHT22;4379;59.744;18.206;2022-07-10T15:59:58;18.90;99.90
8684;DHT22;4379;59.744;18.206;2022-07-10T16:02:26;18.80;99.90
8684;DHT22;4379;59.744;18.206;2022-07-10T16:04:54;18.80;99.90
8684;DHT22;4379;59.744;18.206;2022-07-10T16:07:21;19.00;99.90
8684;DHT22;4379;59.744;18.206;2022-07-10T16:09:49;19.00;99.90
8684;DHT22;4379;59.744;18.206;2022-07-10T16:12:17;19.10;99.90
8684;DHT22;4379;59.744;18.206;2022-07-10T16:14:45;19.10;99.90
8684;DHT22;4379;59.744;18.206;2022-07-10T16:17:12;18.80;99.90
8684;DHT22;4379;59.744;18.206;2022-07-10T16:19:40;18.80;99.90
8684;DHT22;4379;59.744;18.206;2022-07-10T16:22:08;18.60;99.90
8684;DHT22;4379;59.744;18.206;2022-07-10T16:24:35;18.80;99.90
8684;DHT22;4379;59.744;18.206;2022-07-10T16:27:23;18.90;99.90
8684;DHT22;4379;59.744;18.206;2022-07-10T16:29:50;19.00;99.90
8684;DHT22;4379;59.744;18.206;2022-07-10T16:32:17;18.90;99.90
8684;DHT22;4379;59.744;18.206;2022-07-10T16:34:47;18.90;99.90